Huvudsida
METAR-TAF:

METAR-TAF

Flygplatser :

Ajaccio, Frankrike

latitud: 41-55N, longitud: 008-48E, höjd: 6 m

Aktuellt väderrapport

Denna rapport gjordes för 36 minuter sedan, klockan 21:00 UTC
Vind 4 kt från ost/nordost
Temperatur 10°C
Fuktighet 82%
Tryck 1014 hPa
Sikt 10 km eller mer
Inga moln under 1 500 m eller inga cumulonimbus

METAR: LFKJ 142100Z AUTO 06004KT CAVOK 10/07 Q1014 NOSIG

Tid: 22:36 (21:36 UTC)

Väderprognos

Denna rapport gjordes för 1 timme och 36 minuter sedan, klockan 20:00 UTC
Prognos gäller från 14 kl. 21 UTC till 15 kl. 21 UTC
Vind 5 kt från nordost
Sikt 10 km eller mer
Spridda moln på en höjd av 2500 ft

TAF: LFKJ 142000Z 1421/1521 05005KT 9999 SCT025

Aktuella väderrapporter och prognoser från 4000 flygplatser (METAR- och TAF-rapporter).

De tillgängliga stationerna syns som gula och röda prickar på kartan.

För musen över prickarna för att se namnen på stationerna.

Klicka sedan för att få väderrapporter och prognoser.

För att ändra kartan: Klicka på de gröna knapparna med ett svart kors på för att zooma in; den gröna knappen med ett streck på för att zooma ut; eller på de gröna pilarna för angränsande kartor.


METAR-TAF: